Chester, Utah
Current Conditions -  °F | °C
As of 7:53 PM on Friday 21 Nov 2014 (Local Time) from KPUC Reporting Station
Clear Clear  
Wind Chill: 25°   Ceiling: Unl
Heat Index: 30°   Visibility: 10mi
Dew Point: 12°   Wind: 5mph
Humidity: 47%   Direction: 340°NNW
Pressure: 30.06"   Gusts: NA
Location:  39.48°N, 111.56°W
Report Text: KPUC 220253Z AUTO 34004KT 10SM CLR M01/M11 A3006 RMK AO2 SLP220 T10111111 51007
Loading
Personal Weather Stations






























Interactive Weather Map New forecast layout! Learn more

10-Day Weather Forecast

Advertisements
Track Severe Weather on mobile